createdAt,value
2023-04-08T00:01:59.447Z,1.00
2023-04-08T00:04:27.484Z,1.33
2023-04-08T00:06:57.457Z,0.82
2023-04-08T00:09:24.993Z,0.77
2023-04-08T00:11:54.964Z,0.70
2023-04-08T00:14:22.256Z,0.80
2023-04-08T00:16:49.453Z,0.90
2023-04-08T00:19:16.812Z,0.70
2023-04-08T00:21:43.880Z,0.90
2023-04-08T00:24:13.838Z,0.90
2023-04-08T00:26:40.965Z,1.00
2023-04-08T00:29:08.028Z,0.88
2023-04-08T00:31:35.319Z,0.63
2023-04-08T00:34:02.442Z,1.40
2023-04-08T00:36:29.629Z,0.60
2023-04-08T00:38:56.713Z,0.60
2023-04-08T00:41:23.832Z,0.90
2023-04-08T00:43:51.032Z,1.20
2023-04-08T00:46:18.192Z,1.10
2023-04-08T00:48:45.293Z,0.88
2023-04-08T00:51:12.448Z,0.93
2023-04-08T00:53:39.619Z,1.00
2023-04-08T00:56:06.763Z,1.15
2023-04-08T00:58:33.877Z,0.73
2023-04-08T01:01:10.828Z,0.40
2023-04-08T01:03:51.852Z,0.90
2023-04-08T01:06:18.980Z,1.02
2023-04-08T01:08:46.683Z,1.30
2023-04-08T01:11:14.746Z,0.75
2023-04-08T01:13:43.713Z,1.05
2023-04-08T01:16:12.741Z,0.80
2023-04-08T01:18:40.723Z,1.05
2023-04-08T01:21:08.511Z,1.40
2023-04-08T01:23:43.905Z,0.90
2023-04-08T01:26:13.164Z,1.10
2023-04-08T01:28:44.097Z,0.77
2023-04-08T01:31:14.426Z,1.10
2023-04-08T01:33:41.885Z,1.00
2023-04-08T01:36:09.730Z,0.65
2023-04-08T01:38:36.956Z,1.60
2023-04-08T01:41:07.309Z,1.02
2023-04-08T01:43:35.136Z,1.10
2023-04-08T01:46:05.438Z,0.98
2023-04-08T01:48:32.804Z,0.63
2023-04-08T01:51:00.844Z,0.98
2023-04-08T01:53:27.917Z,0.98
2023-04-08T01:55:58.940Z,1.00
2023-04-08T01:58:29.861Z,0.90
2023-04-08T02:00:57.393Z,1.23
2023-04-08T02:03:25.699Z,1.27
2023-04-08T02:05:52.951Z,1.20
2023-04-08T02:08:20.058Z,1.27
2023-04-08T02:10:47.184Z,1.45
2023-04-08T02:13:17.286Z,0.83
2023-04-08T02:15:47.453Z,1.17
2023-04-08T02:18:21.025Z,0.50
2023-04-08T02:20:51.494Z,1.17
2023-04-08T02:23:23.173Z,1.35
2023-04-08T02:25:50.824Z,1.05
2023-04-08T02:28:19.179Z,1.13
2023-04-08T02:30:53.435Z,1.20
2023-04-08T02:33:24.596Z,0.88
2023-04-08T02:35:55.316Z,1.00
2023-04-08T02:38:24.194Z,0.80
2023-04-08T02:40:51.661Z,0.67
2023-04-08T02:43:18.920Z,0.95
2023-04-08T02:45:49.026Z,0.75
2023-04-08T02:48:16.159Z,1.00
2023-04-08T02:50:43.296Z,0.90
2023-04-08T02:53:10.402Z,0.93
2023-04-08T02:55:37.978Z,0.70
2023-04-08T02:58:05.369Z,0.70
2023-04-08T03:00:32.732Z,0.73
2023-04-08T03:03:00.209Z,0.57
2023-04-08T03:05:27.987Z,0.60
2023-04-08T03:07:55.428Z,0.82
2023-04-08T03:10:22.596Z,0.80
2023-04-08T03:12:49.685Z,0.60
2023-04-08T03:15:16.980Z,0.77
2023-04-08T03:17:44.155Z,1.20
2023-04-08T03:20:11.443Z,1.02
2023-04-08T03:22:38.548Z,1.10
2023-04-08T03:25:05.935Z,1.10
2023-04-08T03:27:33.325Z,0.60
2023-04-08T03:30:02.462Z,0.52
2023-04-08T03:32:29.694Z,0.52
2023-04-08T03:34:56.826Z,0.80
2023-04-08T03:37:23.902Z,0.50
2023-04-08T03:39:50.996Z,0.90
2023-04-08T03:42:21.286Z,1.08
2023-04-08T03:44:48.616Z,0.40
2023-04-08T03:47:15.903Z,0.52
2023-04-08T03:49:43.024Z,0.70
2023-04-08T03:52:10.198Z,0.50
2023-04-08T03:54:37.304Z,0.70
2023-04-08T03:57:07.494Z,1.10
2023-04-08T03:59:36.387Z,1.17
2023-04-08T04:02:03.593Z,1.48
2023-04-08T04:04:30.902Z,1.08
2023-04-08T04:06:58.094Z,0.63
2023-04-08T04:09:25.376Z,1.57
2023-04-08T04:11:52.566Z,0.73
2023-04-08T04:14:19.662Z,0.95
2023-04-08T04:16:46.748Z,0.88
2023-04-08T04:19:13.923Z,0.82
2023-04-08T04:21:41.109Z,1.20
2023-04-08T04:24:08.205Z,0.80
2023-04-08T04:26:35.363Z,0.52
2023-04-08T04:29:02.650Z,0.77
2023-04-08T04:31:30.725Z,0.88
2023-04-08T04:33:57.942Z,0.67
2023-04-08T04:36:27.219Z,0.98
2023-04-08T04:38:57.416Z,1.67
2023-04-08T04:41:24.482Z,0.75
2023-04-08T04:43:51.667Z,1.30
2023-04-08T04:46:18.992Z,1.00
2023-04-08T04:48:46.254Z,1.02
2023-04-08T04:51:13.360Z,1.00
2023-04-08T04:53:40.458Z,0.85
2023-04-08T04:56:09.979Z,1.07
2023-04-08T04:58:37.037Z,0.60
2023-04-08T05:01:04.279Z,1.05
2023-04-08T05:03:32.180Z,0.80
2023-04-08T05:06:02.358Z,0.70
2023-04-08T05:08:32.344Z,0.77
2023-04-08T05:11:02.130Z,0.90
2023-04-08T05:13:29.783Z,0.60
2023-04-08T05:15:57.148Z,1.00
2023-04-08T05:18:24.350Z,0.82
2023-04-08T05:20:51.621Z,0.90
2023-04-08T05:23:18.813Z,0.53
2023-04-08T05:25:46.967Z,0.75
2023-04-08T05:28:14.030Z,0.70
2023-04-08T05:30:41.986Z,1.10
2023-04-08T05:33:09.226Z,0.77
2023-04-08T05:35:37.450Z,0.33
2023-04-08T05:38:04.948Z,0.63
2023-04-08T05:40:32.077Z,0.77
2023-04-08T05:42:59.251Z,0.70
2023-04-08T05:45:26.375Z,1.02
2023-04-08T05:47:53.566Z,0.85
2023-04-08T05:50:20.926Z,1.27
2023-04-08T05:52:48.125Z,0.82
2023-04-08T05:55:15.569Z,0.65
2023-04-08T05:57:42.735Z,0.60
2023-04-08T06:00:11.011Z,0.90
2023-04-08T06:02:38.473Z,0.90
2023-04-08T06:05:06.615Z,0.88
2023-04-08T06:07:34.662Z,1.20
2023-04-08T06:10:02.185Z,0.82
2023-04-08T06:12:29.509Z,1.70
2023-04-08T06:14:56.915Z,1.40
2023-04-08T06:17:24.162Z,1.38
2023-04-08T06:19:51.647Z,0.73
2023-04-08T06:22:18.753Z,1.58
2023-04-08T06:24:48.080Z,1.80
2023-04-08T06:27:15.969Z,2.57
2023-04-08T06:29:43.346Z,1.67
2023-04-08T06:32:10.870Z,1.33
2023-04-08T06:34:38.308Z,1.35
2023-04-08T06:37:06.277Z,1.35
2023-04-08T06:39:33.596Z,0.93
2023-04-08T06:42:00.752Z,0.98
2023-04-08T06:44:27.870Z,0.85
2023-04-08T06:46:55.944Z,1.42
2023-04-08T06:49:23.122Z,1.80
2023-04-08T06:51:50.458Z,3.00
2023-04-08T06:54:17.579Z,2.58
2023-04-08T06:56:44.761Z,2.55
2023-04-08T06:59:12.935Z,1.27
2023-04-08T07:01:40.160Z,1.40
2023-04-08T07:04:07.758Z,1.07
2023-04-08T07:06:34.889Z,1.23
2023-04-08T07:09:05.200Z,1.00
2023-04-08T07:11:32.350Z,1.20
2023-04-08T07:13:59.420Z,1.20
2023-04-08T07:16:26.512Z,0.93
2023-04-08T07:18:53.744Z,1.10
2023-04-08T07:21:21.005Z,1.83
2023-04-08T07:23:48.066Z,1.70
2023-04-08T07:26:15.188Z,1.38
2023-04-08T07:28:42.413Z,1.67
2023-04-08T07:31:17.144Z,1.83
2023-04-08T07:33:44.817Z,1.70
2023-04-08T07:36:12.654Z,1.83
2023-04-08T07:38:39.972Z,2.22
2023-04-08T07:41:07.461Z,1.67
2023-04-08T07:43:36.462Z,1.77
2023-04-08T07:46:07.031Z,1.98
2023-04-08T07:48:34.794Z,1.77
2023-04-08T07:51:08.385Z,1.42
2023-04-08T07:53:37.960Z,1.80
2023-04-08T07:56:11.125Z,1.73
2023-04-08T07:58:40.339Z,2.08
2023-04-08T08:01:18.672Z,2.28
2023-04-08T08:03:47.887Z,2.03
2023-04-08T08:06:15.770Z,1.65
2023-04-08T08:08:43.049Z,2.13
2023-04-08T08:11:10.512Z,2.00
2023-04-08T08:13:37.616Z,1.70
2023-04-08T08:16:08.807Z,1.70
2023-04-08T08:18:37.127Z,2.07
2023-04-08T08:21:04.313Z,2.25
2023-04-08T08:23:36.688Z,1.80
2023-04-08T08:26:10.087Z,1.92
2023-04-08T08:28:38.049Z,1.98
2023-04-08T08:31:06.371Z,1.88
2023-04-08T08:33:33.777Z,1.92
2023-04-08T08:36:05.610Z,2.05
2023-04-08T08:38:32.856Z,2.13
2023-04-08T08:41:00.444Z,2.13
2023-04-08T08:43:28.126Z,1.80
2023-04-08T08:46:00.268Z,2.07
2023-04-08T08:48:27.429Z,2.13
2023-04-08T08:50:55.041Z,1.87
2023-04-08T08:53:23.357Z,1.80
2023-04-08T08:56:16.590Z,2.38
2023-04-08T08:58:39.158Z,1.85
2023-04-08T09:01:25.420Z,2.67
2023-04-08T09:04:07.737Z,1.92
2023-04-08T09:06:35.052Z,1.65
2023-04-08T09:09:04.328Z,1.88
2023-04-08T09:11:31.457Z,2.15
2023-04-08T09:13:58.582Z,1.77
2023-04-08T09:16:25.788Z,2.13
2023-04-08T09:18:53.129Z,2.05
2023-04-08T09:21:23.664Z,2.22
2023-04-08T09:23:51.904Z,2.63
2023-04-08T09:26:22.003Z,1.90
2023-04-08T09:28:59.626Z,2.58
2023-04-08T09:31:29.288Z,2.15
2023-04-08T09:34:00.237Z,1.67
2023-04-08T09:36:28.187Z,1.70
2023-04-08T09:38:56.226Z,1.92
2023-04-08T09:41:24.257Z,2.10
2023-04-08T09:43:54.916Z,1.83
2023-04-08T09:46:42.271Z,2.40
2023-04-08T09:49:13.788Z,2.15
2023-04-08T09:51:50.540Z,1.65
2023-04-08T09:54:20.136Z,2.20
2023-04-08T09:57:01.660Z,2.03
2023-04-08T09:59:34.107Z,2.15
2023-04-08T10:02:06.489Z,2.07
2023-04-08T10:04:36.314Z,1.83
2023-04-08T10:07:05.381Z,1.87
2023-04-08T10:09:32.788Z,1.75
2023-04-08T10:11:59.846Z,1.93
2023-04-08T10:14:28.713Z,2.30
2023-04-08T10:17:18.218Z,1.85
2023-04-08T10:19:48.102Z,1.63
2023-04-08T10:22:30.449Z,1.90
2023-04-08T10:25:16.618Z,1.65
2023-04-08T10:27:47.782Z,1.77
2023-04-08T10:30:27.053Z,2.15
2023-04-08T10:32:57.540Z,1.95
2023-04-08T10:35:31.355Z,2.00
2023-04-08T10:37:58.989Z,1.90
2023-04-08T10:40:26.358Z,2.23
2023-04-08T10:42:57.068Z,1.70
2023-04-08T10:45:26.008Z,1.70
2023-04-08T10:47:53.191Z,1.88
2023-04-08T10:50:24.098Z,2.10
2023-04-08T10:52:54.643Z,1.40
2023-04-08T10:55:25.593Z,2.38
2023-04-08T10:57:53.035Z,1.63
2023-04-08T11:00:20.890Z,1.85
2023-04-08T11:02:48.194Z,2.20
2023-04-08T11:05:16.213Z,1.60
2023-04-08T11:07:43.265Z,1.60
2023-04-08T11:10:11.029Z,1.90
2023-04-08T11:12:40.000Z,1.88
2023-04-08T11:15:08.150Z,1.35
2023-04-08T11:17:36.441Z,1.75
2023-04-08T11:20:06.695Z,2.03
2023-04-08T11:22:35.039Z,1.98
2023-04-08T11:25:03.140Z,1.65
2023-04-08T11:27:31.203Z,1.55
2023-04-08T11:30:00.655Z,1.65
2023-04-08T11:32:29.469Z,1.90
2023-04-08T11:34:56.629Z,1.60
2023-04-08T11:37:27.842Z,2.05
2023-04-08T11:39:57.179Z,1.70
2023-04-08T11:42:31.176Z,1.80
2023-04-08T11:44:58.382Z,1.38
2023-04-08T11:47:35.152Z,1.70
2023-04-08T11:50:02.621Z,1.30
2023-04-08T11:52:42.951Z,1.60
2023-04-08T11:55:11.758Z,1.50
2023-04-08T11:57:40.023Z,2.00
2023-04-08T12:00:08.053Z,1.50
2023-04-08T12:02:35.390Z,1.25
2023-04-08T12:05:02.745Z,1.80
2023-04-08T12:07:29.933Z,1.30
2023-04-08T12:09:57.084Z,1.63
2023-04-08T12:12:24.220Z,1.60
2023-04-08T12:14:51.436Z,1.50
2023-04-08T12:17:18.540Z,1.47
2023-04-08T12:19:46.003Z,1.48
2023-04-08T12:22:13.287Z,1.30
2023-04-08T12:24:41.195Z,1.40
2023-04-08T12:27:08.421Z,1.33
2023-04-08T12:29:41.712Z,1.42
2023-04-08T12:32:08.813Z,0.90
2023-04-08T12:34:41.857Z,1.15
2023-04-08T12:37:08.985Z,1.10
2023-04-08T12:39:36.052Z,0.80
2023-04-08T12:42:05.889Z,1.15
2023-04-08T12:44:33.008Z,0.90
2023-04-08T12:47:00.367Z,0.90
2023-04-08T12:49:28.187Z,0.98
2023-04-08T12:52:01.183Z,0.80
2023-04-08T12:54:30.543Z,1.02
2023-04-08T12:56:57.838Z,0.95
2023-04-08T12:59:24.929Z,1.20
2023-04-08T13:01:53.503Z,0.90
2023-04-08T13:04:20.790Z,1.23
2023-04-08T13:06:51.613Z,1.10
2023-04-08T13:09:22.361Z,0.88
2023-04-08T13:11:49.466Z,1.23
2023-04-08T13:14:17.506Z,1.10
2023-04-08T13:16:44.717Z,0.88
2023-04-08T13:19:15.225Z,1.00
2023-04-08T13:21:43.921Z,0.90
2023-04-08T13:24:12.129Z,1.17
2023-04-08T13:26:39.209Z,0.93
2023-04-08T13:29:06.781Z,1.33
2023-04-08T13:31:34.033Z,1.00
2023-04-08T13:34:01.079Z,1.25
2023-04-08T13:36:31.443Z,1.00
2023-04-08T13:39:04.556Z,1.50
2023-04-08T13:41:31.671Z,1.08
2023-04-08T13:43:58.997Z,0.85
2023-04-08T13:46:26.137Z,1.25
2023-04-08T13:48:53.373Z,1.20
2023-04-08T13:51:20.978Z,1.70
2023-04-08T13:53:48.080Z,1.00
2023-04-08T13:56:15.375Z,0.90
2023-04-08T13:58:42.884Z,1.23
2023-04-08T14:01:11.136Z,1.10
2023-04-08T14:03:38.279Z,1.23
2023-04-08T14:06:05.448Z,1.25
2023-04-08T14:08:32.547Z,0.95
2023-04-08T14:10:59.712Z,1.35
2023-04-08T14:13:26.823Z,1.30
2023-04-08T14:15:56.647Z,1.00
2023-04-08T14:18:23.784Z,0.90
2023-04-08T14:20:51.042Z,1.02
2023-04-08T14:23:18.145Z,1.70
2023-04-08T14:25:45.818Z,1.00
2023-04-08T14:28:12.885Z,0.93
2023-04-08T14:30:40.238Z,1.27
2023-04-08T14:33:07.825Z,1.30
2023-04-08T14:35:35.465Z,1.38
2023-04-08T14:38:02.580Z,0.80
2023-04-08T14:40:29.905Z,1.20
2023-04-08T14:42:59.367Z,0.77
2023-04-08T14:45:27.022Z,0.95
2023-04-08T14:47:55.993Z,1.20
2023-04-08T14:50:23.105Z,1.00
2023-04-08T14:52:50.168Z,1.38
2023-04-08T14:55:17.438Z,1.30
2023-04-08T14:57:44.660Z,1.48
2023-04-08T15:00:12.204Z,1.00
2023-04-08T15:02:39.334Z,1.60
2023-04-08T15:05:09.847Z,1.10
2023-04-08T15:07:36.983Z,1.52
2023-04-08T15:10:04.093Z,1.13
2023-04-08T15:12:32.983Z,1.20
2023-04-08T15:15:00.490Z,1.27
2023-04-08T15:17:30.735Z,0.77
2023-04-08T15:19:58.657Z,1.40
2023-04-08T15:22:25.779Z,0.95
2023-04-08T15:24:52.941Z,1.58
2023-04-08T15:27:20.099Z,1.27
2023-04-08T15:29:47.637Z,1.40
2023-04-08T15:32:14.727Z,1.40
2023-04-08T15:34:47.578Z,1.10
2023-04-08T15:37:14.707Z,1.67
2023-04-08T15:39:41.967Z,1.40
2023-04-08T15:42:09.272Z,1.20
2023-04-08T15:44:36.505Z,1.70
2023-04-08T15:47:09.633Z,1.20
2023-04-08T15:49:36.861Z,1.50
2023-04-08T15:52:03.982Z,1.13
2023-04-08T15:54:34.770Z,1.23
2023-04-08T15:57:02.569Z,1.40
2023-04-08T15:59:33.264Z,1.17
2023-04-08T16:02:00.705Z,1.30
2023-04-08T16:04:33.225Z,1.52
2023-04-08T16:07:00.336Z,1.70
2023-04-08T16:09:27.492Z,1.45
2023-04-08T16:11:55.143Z,1.60
2023-04-08T16:14:22.179Z,1.40
2023-04-08T16:16:49.249Z,1.55
2023-04-08T16:19:16.684Z,2.00
2023-04-08T16:21:43.804Z,1.45
2023-04-08T16:24:10.875Z,1.60
2023-04-08T16:26:37.951Z,1.85
2023-04-08T16:29:04.988Z,2.00
2023-04-08T16:31:32.207Z,1.95
2023-04-08T16:33:59.277Z,1.90
2023-04-08T16:36:28.621Z,1.75
2023-04-08T16:38:55.905Z,1.85
2023-04-08T16:41:23.154Z,2.00
2023-04-08T16:43:50.503Z,2.30
2023-04-08T16:46:18.883Z,1.67
2023-04-08T16:48:46.430Z,1.45
2023-04-08T16:51:13.629Z,1.90
2023-04-08T16:53:41.045Z,1.50
2023-04-08T16:56:14.791Z,1.88
2023-04-08T16:58:44.065Z,2.20
2023-04-08T17:01:13.766Z,1.77
2023-04-08T17:03:41.348Z,1.92
2023-04-08T17:06:09.471Z,1.60
2023-04-08T17:08:36.576Z,1.93
2023-04-08T17:11:08.074Z,2.40
2023-04-08T17:13:35.226Z,1.60
2023-04-08T17:16:02.379Z,1.35
2023-04-08T17:18:29.444Z,1.67
2023-04-08T17:20:58.616Z,1.95
2023-04-08T17:23:25.823Z,1.83
2023-04-08T17:25:53.921Z,1.40
2023-04-08T17:28:23.461Z,1.38
2023-04-08T17:30:53.319Z,1.80
2023-04-08T17:33:20.397Z,1.60
2023-04-08T17:35:47.470Z,1.88
2023-04-08T17:38:14.547Z,1.50
2023-04-08T17:40:46.768Z,1.80
2023-04-08T17:43:17.844Z,2.08
2023-04-08T17:45:45.026Z,1.67
2023-04-08T17:48:12.234Z,1.60
2023-04-08T17:50:39.259Z,1.70
2023-04-08T17:53:07.100Z,1.35
2023-04-08T17:55:34.238Z,1.17
2023-04-08T17:58:02.164Z,1.40
2023-04-08T18:00:30.078Z,1.20
2023-04-08T18:02:57.531Z,1.80
2023-04-08T18:05:24.730Z,1.52
2023-04-08T18:07:54.884Z,1.45
2023-04-08T18:10:24.092Z,1.23
2023-04-08T18:15:31.101Z,1.15
2023-04-08T18:17:58.246Z,1.30
2023-04-08T18:20:28.883Z,1.60
2023-04-08T18:22:56.916Z,1.05
2023-04-08T18:25:24.111Z,2.13
2023-04-08T18:27:51.263Z,0.70
2023-04-08T18:30:18.444Z,0.70
2023-04-08T18:32:45.569Z,0.90
2023-04-08T18:35:12.859Z,1.00
2023-04-08T18:37:40.035Z,0.80
2023-04-08T18:40:07.932Z,0.60
2023-04-08T18:42:35.735Z,0.60
2023-04-08T18:45:02.877Z,0.98
2023-04-08T18:47:30.664Z,0.80
2023-04-08T18:49:58.597Z,0.63
2023-04-08T18:52:25.817Z,0.60
2023-04-08T18:54:52.927Z,0.50
2023-04-08T18:57:20.147Z,0.60
2023-04-08T18:59:48.425Z,0.50
2023-04-08T19:02:16.486Z,0.90
2023-04-08T19:04:43.671Z,0.68
2023-04-08T19:07:11.917Z,0.77
2023-04-08T19:09:39.633Z,0.87
2023-04-08T19:12:06.756Z,0.60
2023-04-08T19:14:33.917Z,0.57
2023-04-08T19:17:01.019Z,0.52
2023-04-08T19:19:28.079Z,0.88
2023-04-08T19:22:02.876Z,0.82
2023-04-08T19:24:29.994Z,0.50
2023-04-08T19:26:57.067Z,0.60
2023-04-08T19:29:24.519Z,0.70
2023-04-08T19:31:52.741Z,1.00
2023-04-08T19:34:19.961Z,1.00
2023-04-08T19:36:47.831Z,0.80
2023-04-08T19:39:14.904Z,0.70
2023-04-08T19:41:42.031Z,1.00
2023-04-08T19:44:11.232Z,1.00
2023-04-08T19:46:38.780Z,0.85
2023-04-08T19:49:06.343Z,1.00
2023-04-08T19:51:33.523Z,0.70
2023-04-08T19:54:00.656Z,0.52
2023-04-08T19:56:27.850Z,0.73
2023-04-08T19:58:55.107Z,0.80
2023-04-08T20:01:24.703Z,0.70
2023-04-08T20:03:52.548Z,1.10
2023-04-08T20:06:23.359Z,0.70
2023-04-08T20:08:52.217Z,0.80
2023-04-08T20:11:19.882Z,0.60
2023-04-08T20:13:47.636Z,0.80
2023-04-08T20:16:14.997Z,1.07
2023-04-08T20:18:45.357Z,1.10
2023-04-08T20:21:22.652Z,0.60
2023-04-08T20:23:49.733Z,0.80
2023-04-08T20:26:17.885Z,0.98
2023-04-08T20:28:46.064Z,0.80
2023-04-08T20:31:13.278Z,1.00
2023-04-08T20:33:44.155Z,1.05
2023-04-08T20:36:14.768Z,1.05
2023-04-08T20:38:42.363Z,0.70
2023-04-08T20:41:09.499Z,1.17
2023-04-08T20:43:36.645Z,1.15
2023-04-08T20:46:06.118Z,0.70
2023-04-08T20:48:33.316Z,0.85
2023-04-08T20:51:00.448Z,0.82
2023-04-08T20:53:28.062Z,1.00
2023-04-08T20:55:55.311Z,0.70
2023-04-08T20:58:22.428Z,0.77
2023-04-08T21:00:49.616Z,0.68
2023-04-08T21:03:17.236Z,0.75
2023-04-08T21:05:44.595Z,0.77
2023-04-08T21:08:14.762Z,0.90
2023-04-08T21:10:42.028Z,0.80
2023-04-08T21:13:09.778Z,0.90
2023-04-08T21:15:36.853Z,1.05
2023-04-08T21:20:47.061Z,0.90
2023-04-08T21:23:14.268Z,0.77
2023-04-08T21:25:41.328Z,1.20
2023-04-08T21:28:13.545Z,0.60
2023-04-08T21:30:40.688Z,0.60
2023-04-08T21:33:08.125Z,0.85
2023-04-08T21:35:35.509Z,1.08
2023-04-08T21:38:02.900Z,0.85
2023-04-08T21:40:29.926Z,0.75
2023-04-08T21:42:57.070Z,1.00
2023-04-08T21:45:24.805Z,1.00
2023-04-08T21:47:53.365Z,1.15
2023-04-08T21:50:20.737Z,1.02
2023-04-08T21:52:47.811Z,1.15
2023-04-08T21:55:15.029Z,1.00
2023-04-08T21:57:42.619Z,1.17
2023-04-08T22:00:13.295Z,0.80
2023-04-08T22:02:41.182Z,0.60
2023-04-08T22:05:09.177Z,0.70
2023-04-08T22:07:36.331Z,0.88
2023-04-08T22:10:06.606Z,0.80
2023-04-08T22:12:34.255Z,1.08
2023-04-08T22:15:04.250Z,0.80
2023-04-08T22:17:31.521Z,1.20
2023-04-08T22:19:58.691Z,0.93
2023-04-08T22:22:25.981Z,1.23
2023-04-08T22:24:53.150Z,1.20
2023-04-08T22:27:20.359Z,0.90
2023-04-08T22:29:47.451Z,1.40
2023-04-08T22:32:14.811Z,1.10
2023-04-08T22:34:41.922Z,1.20
2023-04-08T22:37:08.944Z,1.07
2023-04-08T22:39:36.038Z,1.60
2023-04-08T22:42:06.208Z,1.03
2023-04-08T22:44:33.339Z,0.95
2023-04-08T22:47:01.157Z,1.70
2023-04-08T22:49:28.329Z,1.08
2023-04-08T22:51:55.779Z,1.15
2023-04-08T22:54:26.109Z,0.98
2023-04-08T22:56:56.663Z,1.20
2023-04-08T22:59:29.676Z,1.20
2023-04-08T23:01:56.950Z,0.70
2023-04-08T23:04:27.013Z,1.20
2023-04-08T23:06:54.146Z,1.02
2023-04-08T23:09:23.521Z,1.30
2023-04-08T23:11:50.837Z,0.73
2023-04-08T23:14:17.970Z,1.17
2023-04-08T23:16:45.190Z,0.93
2023-04-08T23:19:12.642Z,0.90
2023-04-08T23:21:40.407Z,1.20
2023-04-08T23:24:08.098Z,1.20
2023-04-08T23:26:41.443Z,0.90
2023-04-08T23:29:08.543Z,1.35
2023-04-08T23:31:35.970Z,1.20
2023-04-08T23:34:03.271Z,1.02
2023-04-08T23:36:31.055Z,1.20
2023-04-08T23:38:59.227Z,1.55
2023-04-08T23:41:26.689Z,1.13
2023-04-08T23:43:53.783Z,0.98
2023-04-08T23:46:21.379Z,1.00
2023-04-08T23:48:48.516Z,1.10
2023-04-08T23:51:15.953Z,1.25
2023-04-08T23:53:43.079Z,1.03
2023-04-08T23:56:10.445Z,1.40
2023-04-08T23:58:37.583Z,1.08
